createdAt,value
2017-07-16T00:00:35.895Z,30.7
2017-07-16T00:01:35.928Z,30.8
2017-07-16T00:02:39.104Z,30.8
2017-07-16T00:03:35.737Z,30.8
2017-07-16T00:04:36.041Z,30.8
2017-07-16T00:05:38.833Z,30.8
2017-07-16T00:06:35.995Z,30.8
2017-07-16T00:07:36.081Z,30.8
2017-07-16T00:08:36.567Z,30.8
2017-07-16T00:09:39.095Z,30.8
2017-07-16T00:10:36.128Z,30.8
2017-07-16T00:11:36.431Z,30.8
2017-07-16T00:12:39.350Z,30.8
2017-07-16T00:13:36.360Z,30.8
2017-07-16T00:14:41.820Z,30.8
2017-07-16T00:15:39.495Z,30.7
2017-07-16T00:16:41.505Z,30.8
2017-07-16T00:17:41.553Z,30.8
2017-07-16T00:18:41.610Z,30.8
2017-07-16T00:19:36.692Z,30.7
2017-07-16T00:20:39.901Z,30.8
2017-07-16T00:21:36.799Z,30.8
2017-07-16T00:22:36.907Z,30.8
2017-07-16T00:23:36.928Z,30.8
2017-07-16T00:24:36.973Z,30.8
2017-07-16T00:25:39.907Z,30.8
2017-07-16T00:26:40.266Z,30.8
2017-07-16T00:27:40.058Z,30.8
2017-07-16T00:28:42.292Z,30.8
2017-07-16T00:29:37.310Z,30.8
2017-07-16T00:30:42.496Z,30.8
2017-07-16T00:31:40.414Z,30.8
2017-07-16T00:32:42.692Z,30.7
2017-07-16T00:33:37.507Z,30.8
2017-07-16T00:34:40.341Z,30.8
2017-07-16T00:35:42.648Z,30.8
2017-07-16T00:36:42.543Z,30.8
2017-07-16T00:37:37.635Z,30.8
2017-07-16T00:38:43.101Z,30.8
2017-07-16T00:39:37.912Z,30.8
2017-07-16T00:40:40.799Z,30.8
2017-07-16T00:41:42.923Z,30.8
2017-07-16T00:42:40.982Z,30.8
2017-07-16T00:43:41.005Z,30.8
2017-07-16T00:44:38.218Z,30.8
2017-07-16T00:45:38.158Z,30.8
2017-07-16T00:46:38.334Z,30.8
2017-07-16T00:47:41.263Z,30.8
2017-07-16T00:48:38.184Z,30.8
2017-07-16T00:49:41.309Z,30.8
2017-07-16T00:50:43.328Z,30.7
2017-07-16T00:51:41.283Z,30.7
2017-07-16T00:52:38.308Z,30.8
2017-07-16T00:53:41.273Z,30.8
2017-07-16T00:54:41.552Z,30.8
2017-07-16T00:55:41.554Z,30.8
2017-07-16T00:56:43.520Z,30.8
2017-07-16T00:57:38.688Z,30.8
2017-07-16T00:58:41.584Z,30.7
2017-07-16T00:59:41.547Z,30.8
2017-07-16T01:00:41.620Z,30.8
2017-07-16T01:01:38.957Z,30.8
2017-07-16T01:02:38.917Z,30.8
2017-07-16T01:03:38.942Z,30.7
2017-07-16T01:04:39.122Z,30.8
2017-07-16T01:05:44.081Z,30.8
2017-07-16T01:06:39.155Z,30.8
2017-07-16T01:07:42.158Z,30.8
2017-07-16T01:08:42.072Z,30.8
2017-07-16T01:09:42.218Z,30.8
2017-07-16T01:10:42.124Z,30.7
2017-07-16T01:11:44.408Z,30.7
2017-07-16T01:12:39.289Z,30.8
2017-07-16T01:13:44.308Z,30.8
2017-07-16T01:14:39.486Z,30.8
2017-07-16T01:15:39.435Z,30.8
2017-07-16T01:16:39.328Z,30.7
2017-07-16T01:17:39.564Z,30.8
2017-07-16T01:18:44.546Z,30.8
2017-07-16T01:19:44.607Z,30.8
2017-07-16T01:20:44.700Z,30.8
2017-07-16T01:21:44.756Z,30.8
2017-07-16T01:22:39.747Z,30.7
2017-07-16T01:23:44.816Z,30.7
2017-07-16T01:24:39.737Z,30.7
2017-07-16T01:25:42.888Z,30.7
2017-07-16T01:26:44.890Z,30.7
2017-07-16T01:27:40.124Z,30.8
2017-07-16T01:28:42.857Z,30.8
2017-07-16T01:29:42.848Z,30.8
2017-07-16T01:30:40.085Z,30.8
2017-07-16T01:31:45.008Z,30.8
2017-07-16T01:32:43.002Z,30.7
2017-07-16T01:33:43.092Z,30.7
2017-07-16T01:34:40.253Z,30.7
2017-07-16T01:35:43.098Z,30.7
2017-07-16T01:36:45.437Z,30.7
2017-07-16T01:37:40.440Z,30.7
2017-07-16T01:38:43.356Z,30.7
2017-07-16T01:39:43.311Z,30.7
2017-07-16T01:40:45.434Z,30.7
2017-07-16T01:41:40.541Z,30.7
2017-07-16T01:42:40.745Z,30.7
2017-07-16T01:43:45.781Z,30.7
2017-07-16T01:44:43.709Z,30.7
2017-07-16T01:45:45.876Z,30.7
2017-07-16T01:46:40.906Z,30.7
2017-07-16T01:47:45.807Z,30.7
2017-07-16T01:48:43.754Z,30.7
2017-07-16T01:49:41.093Z,30.7
2017-07-16T01:50:46.089Z,30.7
2017-07-16T01:51:41.051Z,30.7
2017-07-16T01:52:41.289Z,30.7
2017-07-16T01:53:44.032Z,30.7
2017-07-16T01:54:46.143Z,30.7
2017-07-16T01:55:46.357Z,30.7
2017-07-16T01:56:44.141Z,30.7
2017-07-16T01:57:41.462Z,30.7
2017-07-16T01:58:41.382Z,30.7
2017-07-16T01:59:41.450Z,30.7
2017-07-16T02:00:46.602Z,30.7
2017-07-16T02:01:41.724Z,30.7
2017-07-16T02:02:44.719Z,30.7
2017-07-16T02:03:41.736Z,30.7
2017-07-16T02:04:41.931Z,30.7
2017-07-16T02:05:47.015Z,30.7
2017-07-16T02:06:44.805Z,30.7
2017-07-16T02:07:47.029Z,30.7
2017-07-16T02:08:46.961Z,30.7
2017-07-16T02:09:42.287Z,30.7
2017-07-16T02:10:45.095Z,30.7
2017-07-16T02:11:42.242Z,30.7
2017-07-16T02:12:42.256Z,30.7
2017-07-16T02:13:42.239Z,30.7
2017-07-16T02:14:45.284Z,30.7
2017-07-16T02:15:47.382Z,30.7
2017-07-16T02:16:42.600Z,30.6
2017-07-16T02:17:42.392Z,30.7
2017-07-16T02:18:45.451Z,30.7
2017-07-16T02:19:42.704Z,30.7
2017-07-16T02:20:42.528Z,30.7
2017-07-16T02:21:42.667Z,30.7
2017-07-16T02:22:42.866Z,30.7
2017-07-16T02:23:45.757Z,30.7
2017-07-16T02:24:47.809Z,30.7
2017-07-16T02:25:47.881Z,30.7
2017-07-16T02:26:45.746Z,30.7
2017-07-16T02:27:42.806Z,30.7
2017-07-16T02:28:42.978Z,30.6
2017-07-16T02:29:47.805Z,30.7
2017-07-16T02:30:42.905Z,30.7
2017-07-16T02:31:45.916Z,30.7
2017-07-16T02:32:45.833Z,30.7
2017-07-16T02:33:43.297Z,30.6
2017-07-16T02:34:43.254Z,30.7
2017-07-16T02:35:46.187Z,30.6
2017-07-16T02:36:48.266Z,30.7
2017-07-16T02:37:48.356Z,30.7
2017-07-16T02:38:43.324Z,30.7
2017-07-16T02:39:43.676Z,30.7
2017-07-16T02:40:43.374Z,30.7
2017-07-16T02:41:48.548Z,30.7
2017-07-16T02:42:46.531Z,30.7
2017-07-16T02:43:46.382Z,30.7
2017-07-16T02:44:48.625Z,30.6
2017-07-16T02:45:48.628Z,30.7
2017-07-16T02:46:43.768Z,30.7
2017-07-16T02:47:46.678Z,30.7
2017-07-16T02:48:48.838Z,30.6
2017-07-16T02:49:43.832Z,30.7
2017-07-16T02:50:48.812Z,30.7
2017-07-16T02:51:46.857Z,30.6
2017-07-16T02:52:44.028Z,30.6
2017-07-16T02:53:44.178Z,30.6
2017-07-16T02:54:44.212Z,30.6
2017-07-16T02:55:47.259Z,30.6
2017-07-16T02:56:49.285Z,30.6
2017-07-16T02:57:47.209Z,30.6
2017-07-16T02:58:44.266Z,30.6
2017-07-16T02:59:49.343Z,30.6
2017-07-16T03:00:49.518Z,30.7
2017-07-16T03:01:49.476Z,30.6
2017-07-16T03:02:47.425Z,30.6
2017-07-16T03:03:49.627Z,30.6
2017-07-16T03:04:44.797Z,30.7
2017-07-16T03:05:44.768Z,30.7
2017-07-16T03:06:49.845Z,30.7
2017-07-16T03:07:49.804Z,30.6
2017-07-16T03:08:49.938Z,30.7
2017-07-16T03:09:49.939Z,30.7
2017-07-16T03:10:47.859Z,30.7
2017-07-16T03:11:45.058Z,30.6
2017-07-16T03:12:47.982Z,30.6
2017-07-16T03:13:50.062Z,30.6
2017-07-16T03:14:47.954Z,30.6
2017-07-16T03:15:50.183Z,30.7
2017-07-16T03:16:50.120Z,30.6
2017-07-16T03:17:45.168Z,30.6
2017-07-16T03:18:50.367Z,30.6
2017-07-16T03:19:45.258Z,30.6
2017-07-16T03:20:45.513Z,30.6
2017-07-16T03:21:48.322Z,30.6
2017-07-16T03:22:45.465Z,30.6
2017-07-16T03:23:50.376Z,30.6
2017-07-16T03:24:48.483Z,30.6
2017-07-16T03:25:50.610Z,30.6
2017-07-16T03:26:50.542Z,30.6
2017-07-16T03:27:48.534Z,30.6
2017-07-16T03:28:50.704Z,30.6
2017-07-16T03:29:45.789Z,30.6
2017-07-16T03:30:48.755Z,30.6
2017-07-16T03:31:51.011Z,30.6
2017-07-16T03:32:45.919Z,30.6
2017-07-16T03:33:45.991Z,30.6
2017-07-16T03:34:51.077Z,30.6
2017-07-16T03:35:46.160Z,30.6
2017-07-16T03:36:51.332Z,30.6
2017-07-16T03:37:46.266Z,30.6
2017-07-16T03:38:51.423Z,30.6
2017-07-16T03:39:46.448Z,30.6
2017-07-16T03:40:46.505Z,30.6
2017-07-16T03:41:46.632Z,30.6
2017-07-16T03:42:49.342Z,30.6
2017-07-16T03:43:49.415Z,30.6
2017-07-16T03:44:46.565Z,30.6
2017-07-16T03:45:46.688Z,30.6
2017-07-16T03:46:46.628Z,30.6
2017-07-16T03:47:51.692Z,30.6
2017-07-16T03:48:46.805Z,30.6
2017-07-16T03:49:46.703Z,30.6
2017-07-16T03:50:46.875Z,30.6
2017-07-16T03:51:46.820Z,30.6
2017-07-16T03:52:47.026Z,30.6
2017-07-16T03:53:49.889Z,30.6
2017-07-16T03:54:51.856Z,30.6
2017-07-16T03:55:46.899Z,30.6
2017-07-16T03:56:49.885Z,30.6
2017-07-16T03:57:49.886Z,30.6
2017-07-16T03:58:47.013Z,30.6
2017-07-16T03:59:49.981Z,30.6
2017-07-16T04:00:47.209Z,30.6
2017-07-16T04:01:50.218Z,30.6
2017-07-16T04:02:50.129Z,30.6
2017-07-16T04:03:50.350Z,30.6
2017-07-16T04:04:47.387Z,30.6
2017-07-16T04:05:47.565Z,30.6
2017-07-16T04:06:50.362Z,30.6
2017-07-16T04:07:50.442Z,30.6
2017-07-16T04:08:50.580Z,30.6
2017-07-16T04:09:47.843Z,30.6
2017-07-16T04:10:47.877Z,30.6
2017-07-16T04:11:47.812Z,30.6
2017-07-16T04:12:52.914Z,30.6
2017-07-16T04:13:53.031Z,30.6
2017-07-16T04:14:50.957Z,30.6
2017-07-16T04:15:50.867Z,30.6
2017-07-16T04:16:53.057Z,30.6
2017-07-16T04:17:48.261Z,30.6
2017-07-16T04:18:48.112Z,30.6
2017-07-16T04:19:48.288Z,30.6
2017-07-16T04:20:48.129Z,30.6
2017-07-16T04:21:48.150Z,30.6
2017-07-16T04:22:53.175Z,30.6
2017-07-16T04:23:48.375Z,30.7
2017-07-16T04:24:53.959Z,30.7
2017-07-16T04:25:53.358Z,30.7
2017-07-16T04:26:51.231Z,30.7
2017-07-16T04:27:48.403Z,30.7
2017-07-16T04:28:48.610Z,30.7
2017-07-16T04:29:48.571Z,30.6
2017-07-16T04:30:48.602Z,30.7
2017-07-16T04:31:53.950Z,30.6
2017-07-16T04:32:48.821Z,30.7
2017-07-16T04:33:51.791Z,30.6
2017-07-16T04:34:51.684Z,30.7
2017-07-16T04:35:53.846Z,30.6
2017-07-16T04:36:49.148Z,30.7
2017-07-16T04:37:49.390Z,30.7
2017-07-16T04:38:49.158Z,30.7
2017-07-16T04:39:54.006Z,30.7
2017-07-16T04:40:54.212Z,30.7
2017-07-16T04:42:00.253Z,30.6
2017-07-16T04:42:49.302Z,30.6
2017-07-16T04:43:54.495Z,30.6
2017-07-16T04:44:52.991Z,30.7
2017-07-16T04:45:49.316Z,30.7
2017-07-16T04:46:52.368Z,30.7
2017-07-16T04:47:49.476Z,30.7
2017-07-16T04:48:54.546Z,30.7
2017-07-16T04:49:52.624Z,30.7
2017-07-16T04:50:52.395Z,30.7
2017-07-16T04:51:49.573Z,30.7
2017-07-16T04:52:49.770Z,30.7
2017-07-16T04:53:49.696Z,30.7
2017-07-16T04:54:49.957Z,30.7
2017-07-16T04:55:50.241Z,30.7
2017-07-16T04:56:54.935Z,30.7
2017-07-16T04:57:49.870Z,30.7
2017-07-16T04:58:53.678Z,30.7
2017-07-16T04:59:50.096Z,30.7
2017-07-16T05:00:55.205Z,30.7
2017-07-16T05:01:55.443Z,30.6
2017-07-16T05:02:50.271Z,30.6
2017-07-16T05:03:50.274Z,30.7
2017-07-16T05:04:50.373Z,30.7
2017-07-16T05:05:50.260Z,30.7
2017-07-16T05:06:53.278Z,30.6
2017-07-16T05:07:55.672Z,30.7
2017-07-16T05:08:50.384Z,30.7
2017-07-16T05:09:50.677Z,30.7
2017-07-16T05:10:50.766Z,30.6
2017-07-16T05:11:50.854Z,30.7
2017-07-16T05:12:50.916Z,30.7
2017-07-16T05:13:54.243Z,30.7
2017-07-16T05:14:51.008Z,30.7
2017-07-16T05:15:51.165Z,30.6
2017-07-16T05:16:50.968Z,30.7
2017-07-16T05:17:56.080Z,30.7
2017-07-16T05:18:51.043Z,30.7
2017-07-16T05:19:54.354Z,30.7
2017-07-16T05:20:51.374Z,30.7
2017-07-16T05:21:54.231Z,30.6
2017-07-16T05:22:51.440Z,30.7
2017-07-16T05:23:54.202Z,30.7
2017-07-16T05:24:56.517Z,30.7
2017-07-16T05:25:54.701Z,30.7
2017-07-16T05:26:51.579Z,30.7
2017-07-16T05:27:54.550Z,30.7
2017-07-16T05:28:56.693Z,30.7
2017-07-16T05:29:54.513Z,30.7
2017-07-16T05:30:56.823Z,30.7
2017-07-16T05:31:52.022Z,30.7
2017-07-16T05:32:51.710Z,30.6
2017-07-16T05:33:54.798Z,30.6
2017-07-16T05:34:51.857Z,30.7
2017-07-16T05:35:54.921Z,30.7
2017-07-16T05:36:54.828Z,30.7
2017-07-16T05:37:52.288Z,30.6
2017-07-16T05:38:51.954Z,30.7
2017-07-16T05:39:56.966Z,30.7
2017-07-16T05:40:52.135Z,30.7
2017-07-16T05:41:54.908Z,30.7
2017-07-16T05:42:55.002Z,30.7
2017-07-16T05:43:55.321Z,30.7
2017-07-16T05:44:52.210Z,30.6
2017-07-16T05:45:52.237Z,30.6
2017-07-16T05:46:57.235Z,30.7
2017-07-16T05:47:55.748Z,30.7
2017-07-16T05:48:57.282Z,30.7
2017-07-16T05:49:57.659Z,30.7
2017-07-16T05:50:52.547Z,30.7
2017-07-16T05:51:52.585Z,30.7
2017-07-16T05:52:52.598Z,30.7
2017-07-16T05:53:57.439Z,30.7
2017-07-16T05:54:57.612Z,30.7
2017-07-16T05:55:57.901Z,30.7
2017-07-16T05:56:57.518Z,30.7
2017-07-16T05:57:52.545Z,30.7
2017-07-16T05:58:57.712Z,30.7
2017-07-16T05:59:52.771Z,30.7
2017-07-16T06:00:57.749Z,30.7
2017-07-16T06:01:55.903Z,30.7
2017-07-16T06:02:52.760Z,30.7
2017-07-16T06:03:52.851Z,30.8
2017-07-16T06:04:52.932Z,30.8
2017-07-16T06:05:53.060Z,30.8
2017-07-16T06:06:52.978Z,30.8
2017-07-16T06:07:56.318Z,30.8
2017-07-16T06:08:53.053Z,30.7
2017-07-16T06:09:53.238Z,30.7
2017-07-16T06:10:53.166Z,30.7
2017-07-16T06:11:53.324Z,30.8
2017-07-16T06:12:56.221Z,30.8
2017-07-16T06:13:58.685Z,30.8
2017-07-16T06:14:58.415Z,30.8
2017-07-16T06:15:56.312Z,30.8
2017-07-16T06:16:53.514Z,30.8
2017-07-16T06:17:58.458Z,30.8
2017-07-16T06:18:56.304Z,30.8
2017-07-16T06:19:53.893Z,30.8
2017-07-16T06:20:56.478Z,30.8
2017-07-16T06:21:56.503Z,30.8
2017-07-16T06:22:53.578Z,30.8
2017-07-16T06:23:58.586Z,30.8
2017-07-16T06:24:53.673Z,30.8
2017-07-16T06:25:59.109Z,30.9
2017-07-16T06:26:56.722Z,30.9
2017-07-16T06:27:53.855Z,30.8
2017-07-16T06:28:56.877Z,30.8
2017-07-16T06:29:53.893Z,30.9
2017-07-16T06:30:59.020Z,30.9
2017-07-16T06:31:54.268Z,30.9
2017-07-16T06:32:59.153Z,30.9
2017-07-16T06:33:54.019Z,30.9
2017-07-16T06:34:57.628Z,30.9
2017-07-16T06:35:54.116Z,30.9
2017-07-16T06:36:54.086Z,30.9
2017-07-16T06:37:57.357Z,30.9
2017-07-16T06:38:54.430Z,30.9
2017-07-16T06:39:54.380Z,30.9
2017-07-16T06:40:54.420Z,30.9
2017-07-16T06:41:54.280Z,30.9
2017-07-16T06:42:54.478Z,30.9
2017-07-16T06:43:57.697Z,30.9
2017-07-16T06:44:54.560Z,30.9
2017-07-16T06:45:59.569Z,30.9
2017-07-16T06:46:54.590Z,30.9
2017-07-16T06:47:54.616Z,30.9
2017-07-16T06:48:57.683Z,30.9
2017-07-16T06:49:55.034Z,30.9
2017-07-16T06:50:59.788Z,30.9
2017-07-16T06:51:54.766Z,31
2017-07-16T06:52:55.018Z,31
2017-07-16T06:53:54.922Z,31
2017-07-16T06:54:55.129Z,31
2017-07-16T06:55:55.275Z,31
2017-07-16T06:57:00.116Z,30.9
2017-07-16T06:57:58.075Z,31
2017-07-16T06:58:58.263Z,31
2017-07-16T07:00:00.280Z,31
2017-07-16T07:00:55.535Z,31
2017-07-16T07:02:00.703Z,31
2017-07-16T07:02:55.617Z,30.9
2017-07-16T07:03:55.699Z,31
2017-07-16T07:05:00.713Z,31
2017-07-16T07:06:00.730Z,31
2017-07-16T07:06:55.775Z,31
2017-07-16T07:07:56.238Z,30.9
2017-07-16T07:08:58.859Z,31
2017-07-16T07:09:55.914Z,31
2017-07-16T07:10:56.073Z,30.9
2017-07-16T07:11:58.911Z,30.9
2017-07-16T07:12:56.302Z,30.9
2017-07-16T07:13:56.550Z,30.9
2017-07-16T07:14:56.295Z,30.9
2017-07-16T07:15:59.177Z,30.9
2017-07-16T07:16:56.407Z,31
2017-07-16T07:18:01.479Z,31
2017-07-16T07:18:56.374Z,31
2017-07-16T07:19:56.806Z,31
2017-07-16T07:21:01.505Z,31
2017-07-16T07:21:56.546Z,31
2017-07-16T07:23:01.727Z,31
2017-07-16T07:23:59.566Z,31
2017-07-16T07:24:59.650Z,31
2017-07-16T07:25:56.994Z,31
2017-07-16T07:26:59.694Z,31
2017-07-16T07:28:01.860Z,30.9
2017-07-16T07:28:56.896Z,31
2017-07-16T07:29:56.998Z,31
2017-07-16T07:30:59.899Z,30.9
2017-07-16T07:31:57.522Z,30.9
2017-07-16T07:32:57.122Z,30.9
2017-07-16T07:33:57.339Z,30.9
2017-07-16T07:34:57.254Z,30.9
2017-07-16T07:36:02.308Z,31
2017-07-16T07:37:02.517Z,31
2017-07-16T07:37:57.804Z,30.9
2017-07-16T07:39:02.492Z,30.9
2017-07-16T07:40:00.567Z,31
2017-07-16T07:41:02.777Z,31
2017-07-16T07:41:57.820Z,31
2017-07-16T07:43:02.852Z,31
2017-07-16T07:44:03.182Z,31
2017-07-16T07:45:00.809Z,31
2017-07-16T07:45:57.908Z,31
2017-07-16T07:46:58.124Z,31
2017-07-16T07:47:58.146Z,31
2017-07-16T07:49:01.058Z,31
2017-07-16T07:50:01.433Z,31
2017-07-16T07:50:58.484Z,31
2017-07-16T07:52:03.490Z,31
2017-07-16T07:52:58.640Z,31
2017-07-16T07:53:58.655Z,31
2017-07-16T07:54:58.631Z,31
2017-07-16T07:56:03.873Z,31
2017-07-16T07:56:58.622Z,31
2017-07-16T07:58:03.662Z,31.1
2017-07-16T07:59:01.719Z,31.1
2017-07-16T08:00:03.866Z,31.1
2017-07-16T08:00:58.808Z,31.1
2017-07-16T08:02:02.028Z,31.1
2017-07-16T08:03:03.972Z,31.1
2017-07-16T08:03:58.846Z,31.1
2017-07-16T08:04:59.131Z,31.1
2017-07-16T08:06:01.920Z,31.1
2017-07-16T08:07:04.213Z,31
2017-07-16T08:08:04.507Z,31
2017-07-16T08:09:02.117Z,31.1
2017-07-16T08:09:59.342Z,31.1
2017-07-16T08:10:59.334Z,31.1
2017-07-16T08:11:59.378Z,31.1
2017-07-16T08:12:59.605Z,31.1
2017-07-16T08:14:02.699Z,31.1
2017-07-16T08:14:59.479Z,31.1
2017-07-16T08:15:59.580Z,31.2
2017-07-16T08:16:59.621Z,31.2
2017-07-16T08:18:02.601Z,31.2
2017-07-16T08:18:59.619Z,31.2
2017-07-16T08:20:05.049Z,31.2
2017-07-16T08:21:04.740Z,31.2
2017-07-16T08:21:59.914Z,31.2
2017-07-16T08:23:04.801Z,31.2
2017-07-16T08:24:04.989Z,31.2
2017-07-16T08:25:00.225Z,31.2
2017-07-16T08:26:02.873Z,31.3
2017-07-16T08:27:00.182Z,31.3
2017-07-16T08:28:03.089Z,31.3
2017-07-16T08:29:05.223Z,31.3
2017-07-16T08:30:05.127Z,31.3
2017-07-16T08:31:00.457Z,31.4
2017-07-16T08:32:00.398Z,31.4
2017-07-16T08:33:00.348Z,31.4
2017-07-16T08:34:00.431Z,31.5
2017-07-16T08:35:00.425Z,31.4
2017-07-16T08:36:00.652Z,31.5
2017-07-16T08:37:05.793Z,31.5
2017-07-16T08:38:05.593Z,31.5
2017-07-16T08:39:05.785Z,31.6
2017-07-16T08:40:03.569Z,31.7
2017-07-16T08:41:00.694Z,31.8
2017-07-16T08:42:01.324Z,31.8
2017-07-16T08:43:01.102Z,31.8
2017-07-16T08:44:00.989Z,31.9
2017-07-16T08:45:01.107Z,31.9
2017-07-16T08:46:01.003Z,31.9
2017-07-16T08:47:00.998Z,31.9
2017-07-16T08:48:03.987Z,31.9
2017-07-16T08:49:04.358Z,31.9
2017-07-16T08:50:01.407Z,31.9
2017-07-16T08:51:01.350Z,31.9
2017-07-16T08:52:04.368Z,31.9
2017-07-16T08:53:01.366Z,31.9
2017-07-16T08:54:07.053Z,31.9
2017-07-16T08:55:01.853Z,31.9
2017-07-16T08:56:01.470Z,31.9
2017-07-16T08:57:06.678Z,31.9
2017-07-16T08:58:01.683Z,31.9
2017-07-16T08:59:06.731Z,31.9
2017-07-16T09:00:06.745Z,31.9
2017-07-16T09:01:02.139Z,31.9
2017-07-16T09:02:01.770Z,31.9
2017-07-16T09:03:04.747Z,31.9
2017-07-16T09:04:06.980Z,31.8
2017-07-16T09:05:07.046Z,31.8
2017-07-16T09:06:02.050Z,31.8
2017-07-16T09:07:05.249Z,31.8
2017-07-16T09:08:01.999Z,31.8
2017-07-16T09:09:07.152Z,31.8
2017-07-16T09:10:07.200Z,31.8
2017-07-16T09:11:07.963Z,31.7
2017-07-16T09:12:07.300Z,31.7
2017-07-16T09:13:02.543Z,31.7
2017-07-16T09:14:02.276Z,31.7
2017-07-16T09:15:02.606Z,31.7
2017-07-16T09:16:03.025Z,31.7
2017-07-16T09:17:02.479Z,31.7
2017-07-16T09:18:02.465Z,31.7
2017-07-16T09:19:05.756Z,31.7
2017-07-16T09:20:05.513Z,31.7
2017-07-16T09:21:02.617Z,31.7
2017-07-16T09:22:02.695Z,31.7
2017-07-16T09:23:02.578Z,31.7
2017-07-16T09:24:02.831Z,31.8
2017-07-16T09:25:08.115Z,31.8
2017-07-16T09:26:05.821Z,31.8
2017-07-16T09:27:03.038Z,31.8
2017-07-16T09:28:05.862Z,31.7
2017-07-16T09:29:07.941Z,31.8
2017-07-16T09:30:03.187Z,31.8
2017-07-16T09:31:06.256Z,31.8
2017-07-16T09:32:08.260Z,31.8
2017-07-16T09:33:06.196Z,31.8
2017-07-16T09:34:03.413Z,31.8
2017-07-16T09:35:03.309Z,31.8
2017-07-16T09:36:06.202Z,31.8
2017-07-16T09:37:03.651Z,31.8
2017-07-16T09:38:03.445Z,31.8
2017-07-16T09:39:04.369Z,31.8
2017-07-16T09:40:08.659Z,31.8
2017-07-16T09:41:03.551Z,31.8
2017-07-16T09:42:03.579Z,31.8
2017-07-16T09:43:03.949Z,31.7
2017-07-16T09:44:03.694Z,31.8
2017-07-16T09:45:03.803Z,31.8
2017-07-16T09:46:03.833Z,31.7
2017-07-16T09:47:08.930Z,31.8
2017-07-16T09:48:06.878Z,31.8
2017-07-16T09:49:09.187Z,31.8
2017-07-16T09:50:08.960Z,31.8
2017-07-16T09:51:03.952Z,31.8
2017-07-16T09:52:04.217Z,31.7
2017-07-16T09:53:04.296Z,31.8
2017-07-16T09:54:09.312Z,31.8
2017-07-16T09:55:09.522Z,31.8
2017-07-16T09:56:07.235Z,31.8
2017-07-16T09:57:07.278Z,31.8
2017-07-16T09:58:09.346Z,31.8
2017-07-16T09:59:09.425Z,31.9
2017-07-16T10:00:07.244Z,31.9
2017-07-16T10:01:04.769Z,31.9
2017-07-16T10:02:04.513Z,31.9
2017-07-16T10:03:09.866Z,32
2017-07-16T10:04:09.936Z,31.9
2017-07-16T10:05:09.210Z,32
2017-07-16T10:06:10.138Z,32
2017-07-16T10:07:10.437Z,32
2017-07-16T10:08:05.129Z,31.9
2017-07-16T10:09:10.909Z,32
2017-07-16T10:10:05.492Z,31.9
2017-07-16T10:11:05.365Z,31.9
2017-07-16T10:12:05.417Z,31.9
2017-07-16T10:13:09.168Z,31.9
2017-07-16T10:14:05.315Z,31.9
2017-07-16T10:15:08.910Z,31.9
2017-07-16T10:16:05.640Z,32
2017-07-16T10:17:05.457Z,32
2017-07-16T10:18:09.180Z,32
2017-07-16T10:19:10.940Z,32
2017-07-16T10:20:05.789Z,32
2017-07-16T10:21:05.812Z,32.1
2017-07-16T10:22:05.623Z,32.1
2017-07-16T10:23:09.269Z,32.2
2017-07-16T10:24:05.802Z,32.2
2017-07-16T10:25:06.089Z,32.2
2017-07-16T10:26:05.901Z,32.2
2017-07-16T10:27:08.776Z,32.2
2017-07-16T10:28:07.193Z,32.2
2017-07-16T10:29:11.177Z,32.2
2017-07-16T10:30:11.110Z,32.1
2017-07-16T10:31:09.361Z,32.1
2017-07-16T10:32:11.348Z,32.1
2017-07-16T10:33:08.932Z,32
2017-07-16T10:34:11.077Z,32.1
2017-07-16T10:35:11.032Z,32.1
2017-07-16T10:36:11.229Z,32
2017-07-16T10:37:11.146Z,32.1
2017-07-16T10:38:09.241Z,32.1
2017-07-16T10:39:09.280Z,32
2017-07-16T10:40:09.298Z,32.1
2017-07-16T10:41:09.335Z,32.1
2017-07-16T10:42:11.400Z,32.1
2017-07-16T10:43:06.464Z,32.1
2017-07-16T10:44:06.528Z,32.1
2017-07-16T10:45:06.706Z,32.1
2017-07-16T10:46:11.726Z,32.1
2017-07-16T10:47:09.528Z,32.1
2017-07-16T10:48:09.676Z,32.1
2017-07-16T10:49:06.795Z,32.1
2017-07-16T10:50:07.023Z,32.1
2017-07-16T10:51:11.925Z,32.1
2017-07-16T10:52:06.892Z,32.1
2017-07-16T10:53:07.068Z,32.1
2017-07-16T10:54:07.219Z,32.1
2017-07-16T10:55:10.093Z,32
2017-07-16T10:56:10.001Z,32.1
2017-07-16T10:57:07.199Z,32.1
2017-07-16T10:58:07.148Z,32.1
2017-07-16T10:59:07.404Z,32.1
2017-07-16T11:00:07.380Z,32.2
2017-07-16T11:01:10.455Z,32.2
2017-07-16T11:02:07.421Z,32.2
2017-07-16T11:03:10.524Z,32.1
2017-07-16T11:04:12.663Z,32.1
2017-07-16T11:05:12.666Z,32.1
2017-07-16T11:06:12.590Z,32.1
2017-07-16T11:07:07.532Z,32.1
2017-07-16T11:08:12.607Z,32.1
2017-07-16T11:09:10.547Z,32
2017-07-16T11:10:07.764Z,32
2017-07-16T11:11:10.747Z,32
2017-07-16T11:12:10.763Z,32
2017-07-16T11:13:07.981Z,31.9
2017-07-16T11:14:13.092Z,31.9
2017-07-16T11:15:13.032Z,31.9
2017-07-16T11:16:13.204Z,31.8
2017-07-16T11:17:13.274Z,31.9
2017-07-16T11:18:11.177Z,31.8
2017-07-16T11:19:13.301Z,31.8
2017-07-16T11:20:08.345Z,31.8
2017-07-16T11:21:08.463Z,31.8
2017-07-16T11:22:08.538Z,31.8
2017-07-16T11:23:08.441Z,31.8
2017-07-16T11:24:08.567Z,31.8
2017-07-16T11:25:08.472Z,31.8
2017-07-16T11:26:13.647Z,31.8
2017-07-16T11:27:11.588Z,31.8
2017-07-16T11:28:08.733Z,31.8
2017-07-16T11:29:08.805Z,31.8
2017-07-16T11:30:11.561Z,31.8
2017-07-16T11:31:08.928Z,31.8
2017-07-16T11:32:08.941Z,31.8
2017-07-16T11:33:08.822Z,31.9
2017-07-16T11:34:13.996Z,31.9
2017-07-16T11:35:12.309Z,31.9
2017-07-16T11:36:14.182Z,31.9
2017-07-16T11:37:09.604Z,31.8
2017-07-16T11:38:14.646Z,31.8
2017-07-16T11:39:09.628Z,31.8
2017-07-16T11:40:09.623Z,31.8
2017-07-16T11:41:14.953Z,31.8
2017-07-16T11:42:15.356Z,31.8
2017-07-16T11:43:09.720Z,31.8
2017-07-16T11:44:09.725Z,31.8
2017-07-16T11:45:14.896Z,31.8
2017-07-16T11:46:09.750Z,31.8
2017-07-16T11:47:10.804Z,31.8
2017-07-16T11:48:15.559Z,31.8
2017-07-16T11:49:12.767Z,31.8
2017-07-16T11:50:15.025Z,31.8
2017-07-16T11:51:12.876Z,31.8
2017-07-16T11:52:12.943Z,31.8
2017-07-16T11:53:10.531Z,31.7
2017-07-16T11:54:13.614Z,31.8
2017-07-16T11:55:15.611Z,31.8
2017-07-16T11:56:14.335Z,31.8
2017-07-16T11:57:13.772Z,31.8
2017-07-16T11:58:11.057Z,31.8
2017-07-16T11:59:15.576Z,31.9
2017-07-16T12:00:15.920Z,31.9
2017-07-16T12:01:13.441Z,31.9
2017-07-16T12:02:15.632Z,31.9
2017-07-16T12:03:11.955Z,31.9
2017-07-16T12:04:13.456Z,31.9
2017-07-16T12:05:13.059Z,31.9
2017-07-16T12:06:10.583Z,31.9
2017-07-16T12:07:16.291Z,31.9
2017-07-16T12:08:11.751Z,31.9
2017-07-16T12:09:11.093Z,31.9
2017-07-16T12:10:16.043Z,31.9
2017-07-16T12:11:11.475Z,31.9
2017-07-16T12:12:14.026Z,31.9
2017-07-16T12:13:16.329Z,31.9
2017-07-16T12:14:16.029Z,32
2017-07-16T12:15:11.097Z,32
2017-07-16T12:16:11.225Z,32
2017-07-16T12:17:14.194Z,32
2017-07-16T12:18:14.029Z,32
2017-07-16T12:19:14.126Z,32
2017-07-16T12:20:11.971Z,32
2017-07-16T12:21:15.291Z,32
2017-07-16T12:22:16.246Z,32
2017-07-16T12:23:17.282Z,32
2017-07-16T12:24:11.971Z,32
2017-07-16T12:25:14.935Z,32.1
2017-07-16T12:26:12.921Z,32.1
2017-07-16T12:27:14.954Z,32.1
2017-07-16T12:28:14.994Z,32.1
2017-07-16T12:29:16.931Z,32.1
2017-07-16T12:30:16.440Z,32.2
2017-07-16T12:31:11.553Z,32.1
2017-07-16T12:32:11.702Z,32.2
2017-07-16T12:33:16.720Z,32.2
2017-07-16T12:34:14.593Z,32.2
2017-07-16T12:35:14.971Z,32.2
2017-07-16T12:36:16.764Z,32.2
2017-07-16T12:37:14.737Z,32.2
2017-07-16T12:38:12.010Z,32.1
2017-07-16T12:39:14.882Z,32.1
2017-07-16T12:40:12.124Z,32.1
2017-07-16T12:41:15.060Z,32.1
2017-07-16T12:42:17.231Z,32.1
2017-07-16T12:43:15.035Z,32
2017-07-16T12:44:12.400Z,32
2017-07-16T12:45:17.415Z,32
2017-07-16T12:46:17.467Z,32
2017-07-16T12:47:17.431Z,32
2017-07-16T12:48:12.578Z,32
2017-07-16T12:49:17.615Z,32
2017-07-16T12:50:12.601Z,32
2017-07-16T12:51:12.756Z,32
2017-07-16T12:52:15.739Z,32
2017-07-16T12:53:12.876Z,32
2017-07-16T12:54:12.680Z,32
2017-07-16T12:55:15.794Z,32
2017-07-16T12:56:15.716Z,32
2017-07-16T12:57:15.926Z,32
2017-07-16T12:58:18.093Z,32.1
2017-07-16T12:59:15.913Z,32.1
2017-07-16T13:00:16.050Z,32.1
2017-07-16T13:01:13.135Z,32.2
2017-07-16T13:02:13.109Z,32.2
2017-07-16T13:03:13.312Z,32.2
2017-07-16T13:04:18.211Z,32.3
2017-07-16T13:05:16.112Z,32.3
2017-07-16T13:06:13.253Z,32.3
2017-07-16T13:07:13.429Z,32.3
2017-07-16T13:08:13.410Z,32.3
2017-07-16T13:09:13.382Z,32.3
2017-07-16T13:10:13.406Z,32.3
2017-07-16T13:11:16.540Z,32.3
2017-07-16T13:12:17.232Z,32.3
2017-07-16T13:13:18.937Z,32.3
2017-07-16T13:14:20.238Z,32.3
2017-07-16T13:15:14.119Z,32.3
2017-07-16T13:16:14.060Z,32.3
2017-07-16T13:17:14.023Z,32.4
2017-07-16T13:18:14.044Z,32.3
2017-07-16T13:19:16.905Z,32.4
2017-07-16T13:20:16.950Z,32.5
2017-07-16T13:21:14.113Z,32.5
2017-07-16T13:22:19.853Z,32.5
2017-07-16T13:23:19.154Z,32.6
2017-07-16T13:24:19.217Z,32.6
2017-07-16T13:25:19.413Z,32.6